createdAt,value
2018-09-03T00:02:08.753Z,12.47
2018-09-03T00:04:37.911Z,12.10
2018-09-03T00:07:07.015Z,13.53
2018-09-03T00:09:42.979Z,13.33
2018-09-03T00:12:12.880Z,13.93
2018-09-03T00:14:42.058Z,13.60
2018-09-03T00:17:11.191Z,13.60
2018-09-03T00:19:40.274Z,14.50
2018-09-03T00:22:09.458Z,11.47
2018-09-03T00:24:38.576Z,13.77
2018-09-03T00:27:07.806Z,15.33
2018-09-03T00:29:36.904Z,12.77
2018-09-03T00:32:11.336Z,12.30
2018-09-03T00:34:45.672Z,14.77
2018-09-03T00:37:19.974Z,14.33
2018-09-03T00:39:54.396Z,15.60
2018-09-03T00:42:28.783Z,15.77
2018-09-03T00:45:02.994Z,17.67
2018-09-03T00:47:32.219Z,16.97
2018-09-03T00:50:01.331Z,15.70
2018-09-03T00:52:30.494Z,12.50
2018-09-03T00:54:59.679Z,13.83
2018-09-03T00:57:28.807Z,11.27
2018-09-03T00:59:57.951Z,13.97
2018-09-03T01:02:27.154Z,12.73
2018-09-03T01:04:56.214Z,16.47
2018-09-03T01:07:25.388Z,16.33
2018-09-03T01:09:54.467Z,14.07
2018-09-03T01:12:23.509Z,12.33
2018-09-03T01:14:52.579Z,12.50
2018-09-03T01:17:21.641Z,11.60
2018-09-03T01:19:50.746Z,11.67
2018-09-03T01:22:26.200Z,11.27
2018-09-03T01:24:55.288Z,12.13
2018-09-03T01:27:24.479Z,9.53
2018-09-03T01:29:53.580Z,8.77
2018-09-03T01:32:22.686Z,8.87
2018-09-03T01:34:51.759Z,7.30
2018-09-03T01:37:20.846Z,8.53
2018-09-03T01:39:49.978Z,7.97
2018-09-03T01:42:19.093Z,8.40
2018-09-03T01:44:48.223Z,9.57
2018-09-03T01:47:17.382Z,9.63
2018-09-03T01:49:46.652Z,9.37
2018-09-03T01:52:15.775Z,9.77
2018-09-03T01:54:44.954Z,8.13
2018-09-03T01:57:14.027Z,9.10
2018-09-03T01:59:43.079Z,9.03
2018-09-03T02:02:12.251Z,10.77
2018-09-03T02:04:41.478Z,9.17
2018-09-03T02:07:10.582Z,8.33
2018-09-03T02:09:39.617Z,7.97
2018-09-03T02:12:13.008Z,8.90
2018-09-03T02:14:43.497Z,9.83
2018-09-03T02:17:14.071Z,10.37
2018-09-03T02:19:43.159Z,9.20
2018-09-03T02:22:12.260Z,9.73
2018-09-03T02:24:41.320Z,9.90
2018-09-03T02:27:10.348Z,8.70
2018-09-03T02:29:39.474Z,9.20
2018-09-03T02:32:08.574Z,9.97
2018-09-03T02:34:37.578Z,9.10
2018-09-03T02:37:06.784Z,9.00
2018-09-03T02:39:35.866Z,11.27
2018-09-03T02:42:05.088Z,9.20
2018-09-03T02:44:37.923Z,9.33
2018-09-03T02:47:07.168Z,10.37
2018-09-03T02:49:36.273Z,10.33
2018-09-03T02:52:05.407Z,10.93
2018-09-03T02:54:34.557Z,9.50
2018-09-03T02:57:03.607Z,9.37
2018-09-03T02:59:32.676Z,10.20
2018-09-03T03:02:01.738Z,10.30
2018-09-03T03:04:30.801Z,11.97
2018-09-03T03:06:59.936Z,9.60
2018-09-03T03:09:29.072Z,9.30
2018-09-03T03:11:58.205Z,11.30
2018-09-03T03:14:27.309Z,11.00
2018-09-03T03:16:56.349Z,12.87
2018-09-03T03:19:25.543Z,12.37
2018-09-03T03:21:54.629Z,12.73
2018-09-03T03:24:23.694Z,12.00
2018-09-03T03:26:52.748Z,9.53
2018-09-03T03:29:21.784Z,10.00
2018-09-03T03:31:50.904Z,15.37
2018-09-03T03:34:20.021Z,15.87
2018-09-03T03:36:49.128Z,19.70
2018-09-03T03:39:18.200Z,20.10
2018-09-03T03:41:47.258Z,19.90
2018-09-03T03:44:16.378Z,19.03
2018-09-03T03:46:45.443Z,14.70
2018-09-03T03:49:14.654Z,17.27
2018-09-03T03:51:43.740Z,14.47
2018-09-03T03:54:12.780Z,14.70
2018-09-03T03:56:41.903Z,19.03
2018-09-03T03:59:11.013Z,20.27
2018-09-03T04:01:40.197Z,23.40
2018-09-03T04:04:09.288Z,22.40
2018-09-03T04:06:38.397Z,21.23
2018-09-03T04:09:09.736Z,16.23
2018-09-03T04:11:39.142Z,15.17
2018-09-03T04:14:08.226Z,18.50
2018-09-03T04:16:37.299Z,17.83
2018-09-03T04:19:06.400Z,19.10
2018-09-03T04:21:35.530Z,21.63
2018-09-03T04:24:04.614Z,19.93
2018-09-03T04:26:33.738Z,16.53
2018-09-03T04:29:02.831Z,18.43
2018-09-03T04:31:31.949Z,18.37
2018-09-03T04:34:01.083Z,20.93
2018-09-03T04:36:30.207Z,16.93
2018-09-03T04:38:59.297Z,15.70
2018-09-03T04:41:28.478Z,16.60
2018-09-03T04:43:57.518Z,15.90
2018-09-03T04:46:26.719Z,15.83
2018-09-03T04:48:55.795Z,15.73
2018-09-03T04:51:24.807Z,13.53
2018-09-03T04:53:53.873Z,16.80
2018-09-03T04:56:22.979Z,27.43
2018-09-03T04:58:52.012Z,27.23
2018-09-03T05:01:21.072Z,20.10
2018-09-03T05:03:50.294Z,19.27
2018-09-03T05:06:19.359Z,19.87
2018-09-03T05:08:51.444Z,22.03
2018-09-03T05:11:20.503Z,24.53
2018-09-03T05:13:49.653Z,22.87
2018-09-03T05:16:18.720Z,20.93
2018-09-03T05:18:47.730Z,22.03
2018-09-03T05:21:16.838Z,24.57
2018-09-03T05:23:45.932Z,16.97
2018-09-03T05:26:15.139Z,15.10
2018-09-03T05:28:44.185Z,14.07
2018-09-03T05:31:13.581Z,15.90
2018-09-03T05:33:42.919Z,17.17
2018-09-03T05:36:11.970Z,13.90
2018-09-03T05:38:41.040Z,15.53
2018-09-03T05:41:10.178Z,15.13
2018-09-03T05:43:39.417Z,13.33
2018-09-03T05:46:08.514Z,16.97
2018-09-03T05:48:37.584Z,14.00
2018-09-03T05:51:06.983Z,15.73
2018-09-03T05:53:36.224Z,18.43
2018-09-03T05:56:05.451Z,16.90
2018-09-03T05:58:34.642Z,17.40
2018-09-03T06:01:04.610Z,18.73
2018-09-03T06:03:33.799Z,15.60
2018-09-03T06:06:03.218Z,18.50
2018-09-03T06:08:32.385Z,16.50
2018-09-03T06:11:01.558Z,20.17
2018-09-03T06:13:30.653Z,20.90
2018-09-03T06:15:59.871Z,19.23
2018-09-03T06:18:28.952Z,16.67
2018-09-03T06:20:58.026Z,16.40
2018-09-03T06:23:27.116Z,19.90
2018-09-03T06:25:56.407Z,17.37
2018-09-03T06:28:25.447Z,17.20
2018-09-03T06:30:54.531Z,18.20
2018-09-03T06:33:23.567Z,19.53
2018-09-03T06:35:52.731Z,20.27
2018-09-03T06:38:21.773Z,17.10
2018-09-03T06:40:50.967Z,18.67
2018-09-03T06:43:20.076Z,18.50
2018-09-03T06:45:49.227Z,19.13
2018-09-03T06:48:18.457Z,18.57
2018-09-03T06:50:47.643Z,18.87
2018-09-03T06:53:16.939Z,18.60
2018-09-03T06:55:46.087Z,16.67
2018-09-03T06:58:15.319Z,14.17
2018-09-03T07:00:44.412Z,13.70
2018-09-03T07:03:13.606Z,13.93
2018-09-03T07:05:42.771Z,14.40
2018-09-03T07:08:11.844Z,15.43
2018-09-03T07:10:41.004Z,11.57
2018-09-03T07:13:10.226Z,10.73
2018-09-03T07:15:39.316Z,12.27
2018-09-03T07:18:08.487Z,10.10
2018-09-03T07:20:37.603Z,12.70
2018-09-03T07:23:06.824Z,13.30
2018-09-03T07:25:35.945Z,11.63
2018-09-03T07:28:05.135Z,12.90
2018-09-03T07:30:34.280Z,12.03
2018-09-03T07:33:03.524Z,11.10
2018-09-03T07:35:32.647Z,12.10
2018-09-03T07:38:01.753Z,12.17
2018-09-03T07:40:30.768Z,13.57
2018-09-03T07:43:00.027Z,13.70
2018-09-03T07:45:29.213Z,12.30
2018-09-03T07:47:58.338Z,13.53
2018-09-03T07:50:27.450Z,13.13
2018-09-03T07:52:56.551Z,13.47
2018-09-03T07:55:25.717Z,12.90
2018-09-03T07:57:54.879Z,14.30
2018-09-03T08:00:23.961Z,14.03
2018-09-03T08:02:53.147Z,13.47
2018-09-03T08:05:22.303Z,12.43
2018-09-03T08:07:51.538Z,14.47
2018-09-03T08:10:21.833Z,15.00
2018-09-03T08:12:51.129Z,15.40
2018-09-03T08:15:20.353Z,13.80
2018-09-03T08:17:49.597Z,13.90
2018-09-03T08:20:18.779Z,14.23
2018-09-03T08:22:47.868Z,12.97
2018-09-03T08:25:16.989Z,12.03
2018-09-03T08:27:46.071Z,12.80
2018-09-03T08:30:15.323Z,14.53
2018-09-03T08:32:44.578Z,12.23
2018-09-03T08:35:13.793Z,12.13
2018-09-03T08:37:42.900Z,11.50
2018-09-03T08:40:12.095Z,12.20
2018-09-03T08:42:41.261Z,11.37
2018-09-03T08:45:10.497Z,11.20
2018-09-03T08:47:39.619Z,11.50
2018-09-03T08:50:08.749Z,11.17
2018-09-03T08:52:37.857Z,11.33
2018-09-03T08:55:07.041Z,10.83
2018-09-03T08:57:36.249Z,12.40
2018-09-03T09:00:05.626Z,11.37
2018-09-03T09:02:34.754Z,11.17
2018-09-03T09:05:04.031Z,10.93
2018-09-03T09:07:33.222Z,9.80
2018-09-03T09:10:02.418Z,11.47
2018-09-03T09:12:31.555Z,11.33
2018-09-03T09:15:00.619Z,12.07
2018-09-03T09:17:29.759Z,9.53
2018-09-03T09:19:58.845Z,11.43
2018-09-03T09:22:27.943Z,10.97
2018-09-03T09:24:57.260Z,11.50
2018-09-03T09:27:26.314Z,12.13
2018-09-03T09:29:55.397Z,11.37
2018-09-03T09:32:24.539Z,12.57
2018-09-03T09:34:53.637Z,11.67
2018-09-03T09:37:22.761Z,10.30
2018-09-03T09:39:51.901Z,11.07
2018-09-03T09:42:21.002Z,10.63
2018-09-03T09:44:50.075Z,11.00
2018-09-03T09:47:19.265Z,12.43
2018-09-03T09:49:48.461Z,10.43
2018-09-03T09:52:17.561Z,10.80
2018-09-03T09:54:46.773Z,11.33
2018-09-03T09:57:15.988Z,10.73
2018-09-03T09:59:45.128Z,12.80
2018-09-03T10:02:14.222Z,12.20
2018-09-03T10:04:43.401Z,12.07
2018-09-03T10:07:12.526Z,11.37
2018-09-03T10:09:41.689Z,11.70
2018-09-03T10:12:10.878Z,10.50
2018-09-03T10:14:40.039Z,10.63
2018-09-03T10:17:09.223Z,10.43
2018-09-03T10:19:38.423Z,12.03
2018-09-03T10:22:07.661Z,10.27
2018-09-03T10:24:36.742Z,12.07
2018-09-03T10:27:06.127Z,12.30
2018-09-03T10:29:35.233Z,11.80
2018-09-03T10:32:04.512Z,10.67
2018-09-03T10:34:33.674Z,10.37
2018-09-03T10:37:02.895Z,11.70
2018-09-03T10:39:32.000Z,12.50
2018-09-03T10:42:01.128Z,11.73
2018-09-03T10:44:30.485Z,12.10
2018-09-03T10:46:59.725Z,11.73
2018-09-03T10:49:29.453Z,11.00
2018-09-03T10:51:58.735Z,11.27
2018-09-03T10:54:27.858Z,11.70
2018-09-03T10:56:57.092Z,12.20
2018-09-03T10:59:26.243Z,13.17
2018-09-03T11:01:55.320Z,11.83
2018-09-03T11:04:24.424Z,12.60
2018-09-03T11:06:53.571Z,11.67
2018-09-03T11:09:22.587Z,14.10
2018-09-03T11:11:51.743Z,11.97
2018-09-03T11:14:20.872Z,12.43
2018-09-03T11:16:50.067Z,13.17
2018-09-03T11:19:21.201Z,12.27
2018-09-03T11:21:50.301Z,14.03
2018-09-03T11:24:19.491Z,12.43
2018-09-03T11:26:48.673Z,13.53
2018-09-03T11:29:17.827Z,13.37
2018-09-03T11:31:47.035Z,13.87
2018-09-03T11:34:16.114Z,14.80
2018-09-03T11:36:45.225Z,13.90
2018-09-03T11:39:14.322Z,15.20
2018-09-03T11:41:43.429Z,13.47
2018-09-03T11:44:12.617Z,12.67
2018-09-03T11:46:41.833Z,11.30
2018-09-03T11:49:10.912Z,14.47
2018-09-03T11:51:40.084Z,13.00
2018-09-03T11:54:09.223Z,14.30
2018-09-03T11:56:38.306Z,15.13
2018-09-03T11:59:07.395Z,14.53
2018-09-03T12:01:36.551Z,15.53
2018-09-03T12:04:05.712Z,14.13
2018-09-03T12:06:34.989Z,15.70
2018-09-03T12:09:04.814Z,13.30
2018-09-03T12:11:33.938Z,14.17
2018-09-03T12:14:06.887Z,14.40
2018-09-03T12:16:36.119Z,16.17
2018-09-03T12:19:05.231Z,14.50
2018-09-03T12:21:34.469Z,14.00
2018-09-03T12:24:03.573Z,15.37
2018-09-03T12:26:32.811Z,15.83
2018-09-03T12:29:01.901Z,15.27
2018-09-03T12:31:31.029Z,15.00
2018-09-03T12:34:00.124Z,15.73
2018-09-03T12:36:30.212Z,14.77
2018-09-03T12:38:59.292Z,15.77
2018-09-03T12:41:28.479Z,15.53
2018-09-03T12:43:57.751Z,16.40
2018-09-03T12:46:26.907Z,16.87
2018-09-03T12:48:55.938Z,15.57
2018-09-03T12:51:25.009Z,16.20
2018-09-03T12:53:54.128Z,14.53
2018-09-03T12:56:23.279Z,15.30
2018-09-03T12:58:52.383Z,13.27
2018-09-03T13:01:21.983Z,15.90
2018-09-03T13:03:51.402Z,14.20
2018-09-03T13:06:20.641Z,13.33
2018-09-03T13:08:49.758Z,14.87
2018-09-03T13:11:18.972Z,16.40
2018-09-03T13:13:48.136Z,13.03
2018-09-03T13:16:17.214Z,15.87
2018-09-03T13:18:46.468Z,14.30
2018-09-03T13:21:15.646Z,14.17
2018-09-03T13:23:45.276Z,12.83
2018-09-03T13:26:14.518Z,14.33
2018-09-03T13:28:43.689Z,13.73
2018-09-03T13:31:12.919Z,13.67
2018-09-03T13:33:42.109Z,13.90
2018-09-03T13:36:11.351Z,11.60
2018-09-03T13:38:40.442Z,12.13
2018-09-03T13:41:09.665Z,13.97
2018-09-03T13:43:38.927Z,11.17
2018-09-03T13:46:08.054Z,16.33
2018-09-03T13:48:37.173Z,16.07
2018-09-03T13:51:06.470Z,15.77
2018-09-03T13:53:35.576Z,13.40
2018-09-03T13:56:04.773Z,14.87
2018-09-03T13:58:33.974Z,14.10
2018-09-03T14:01:03.198Z,13.53
2018-09-03T14:03:32.466Z,15.70
2018-09-03T14:06:01.684Z,13.07
2018-09-03T14:08:30.916Z,12.93
2018-09-03T14:11:00.098Z,14.43
2018-09-03T14:13:29.177Z,12.23
2018-09-03T14:15:58.290Z,13.63
2018-09-03T14:18:27.438Z,11.77
2018-09-03T14:20:56.713Z,12.07
2018-09-03T14:23:25.876Z,13.00
2018-09-03T14:25:54.999Z,11.20
2018-09-03T14:28:24.054Z,11.17
2018-09-03T14:30:53.164Z,11.27
2018-09-03T14:33:22.328Z,11.13
2018-09-03T14:35:51.460Z,12.03
2018-09-03T14:38:20.541Z,10.70
2018-09-03T14:40:49.686Z,11.60
2018-09-03T14:43:18.782Z,12.10
2018-09-03T14:45:47.885Z,10.00
2018-09-03T14:48:16.969Z,9.13
2018-09-03T14:50:46.146Z,9.90
2018-09-03T14:53:15.258Z,11.20
2018-09-03T14:55:44.435Z,10.73
2018-09-03T14:58:13.589Z,11.40
2018-09-03T15:00:42.693Z,10.57
2018-09-03T15:03:11.799Z,10.67
2018-09-03T15:05:40.863Z,10.87
2018-09-03T15:08:10.140Z,12.87
2018-09-03T15:10:39.360Z,11.57
2018-09-03T15:13:08.563Z,10.37
2018-09-03T15:18:28.227Z,8.10
2018-09-03T15:20:57.372Z,5.30
2018-09-03T15:23:26.672Z,6.27
2018-09-03T15:25:55.754Z,4.83
2018-09-03T15:28:24.912Z,4.97
2018-09-03T15:30:53.992Z,5.43
2018-09-03T15:33:23.124Z,4.50
2018-09-03T15:35:52.206Z,4.93
2018-09-03T15:38:21.362Z,3.73
2018-09-03T15:40:50.374Z,4.50
2018-09-03T15:43:19.476Z,3.93
2018-09-03T15:45:48.499Z,3.33
2018-09-03T15:48:17.623Z,3.93
2018-09-03T15:50:46.755Z,3.80
2018-09-03T15:53:15.902Z,2.87
2018-09-03T15:55:44.979Z,2.80
2018-09-03T15:58:14.070Z,4.07
2018-09-03T16:00:43.179Z,3.07
2018-09-03T16:03:12.318Z,3.30
2018-09-03T16:05:41.434Z,3.43
2018-09-03T16:08:10.620Z,3.73
2018-09-03T16:10:39.851Z,2.87
2018-09-03T16:13:09.047Z,2.63
2018-09-03T16:15:38.164Z,3.10
2018-09-03T16:18:07.427Z,3.07
2018-09-03T16:20:36.467Z,2.67
2018-09-03T16:23:05.722Z,2.77
2018-09-03T16:25:34.727Z,2.67
2018-09-03T16:28:03.963Z,2.50
2018-09-03T16:30:33.540Z,2.63
2018-09-03T16:33:02.680Z,2.50
2018-09-03T16:35:32.047Z,2.50
2018-09-03T16:38:01.253Z,2.50
2018-09-03T16:40:30.407Z,2.10
2018-09-03T16:42:59.511Z,2.50
2018-09-03T16:45:28.567Z,2.50
2018-09-03T16:47:57.807Z,2.83
2018-09-03T16:50:26.985Z,3.37
2018-09-03T16:52:56.059Z,2.73
2018-09-03T16:55:25.217Z,3.50
2018-09-03T16:57:54.343Z,3.07
2018-09-03T17:00:23.509Z,2.93
2018-09-03T17:02:52.611Z,2.80
2018-09-03T17:05:21.856Z,2.67
2018-09-03T17:07:51.058Z,3.13
2018-09-03T17:10:20.172Z,2.50
2018-09-03T17:12:49.395Z,2.87
2018-09-03T17:15:18.447Z,2.80
2018-09-03T17:17:47.575Z,2.80
2018-09-03T17:20:16.790Z,3.13
2018-09-03T17:22:45.859Z,2.57
2018-09-03T17:25:14.987Z,3.13
2018-09-03T17:27:44.116Z,3.63
2018-09-03T17:30:13.212Z,2.83
2018-09-03T17:32:42.391Z,3.53
2018-09-03T17:35:11.512Z,3.97
2018-09-03T17:37:40.666Z,3.57
2018-09-03T17:40:10.135Z,4.57
2018-09-03T17:42:39.251Z,3.67
2018-09-03T17:45:09.507Z,3.10
2018-09-03T17:47:39.599Z,4.13
2018-09-03T17:50:08.819Z,3.70
2018-09-03T17:52:37.899Z,3.97
2018-09-03T17:55:08.272Z,4.77
2018-09-03T17:57:37.398Z,4.17
2018-09-03T18:00:06.566Z,5.40
2018-09-03T18:02:35.711Z,5.10
2018-09-03T18:05:04.987Z,5.60
2018-09-03T18:07:34.233Z,6.27
2018-09-03T18:10:03.317Z,6.07
2018-09-03T18:12:32.491Z,5.73
2018-09-03T18:15:01.525Z,5.13
2018-09-03T18:17:30.648Z,7.00
2018-09-03T18:19:59.796Z,7.37
2018-09-03T18:22:28.925Z,6.73
2018-09-03T18:24:58.111Z,7.00
2018-09-03T18:27:27.329Z,5.73
2018-09-03T18:29:56.428Z,6.33
2018-09-03T18:32:25.568Z,7.03
2018-09-03T18:34:54.672Z,6.20
2018-09-03T18:37:23.944Z,6.80
2018-09-03T18:39:53.152Z,7.30
2018-09-03T18:42:22.438Z,10.17
2018-09-03T18:44:51.733Z,8.30
2018-09-03T18:47:20.963Z,9.67
2018-09-03T18:49:50.145Z,7.73
2018-09-03T18:52:19.446Z,8.90
2018-09-03T18:54:48.511Z,7.43
2018-09-03T18:57:17.619Z,8.03
2018-09-03T18:59:46.799Z,9.07
2018-09-03T19:02:15.916Z,7.93
2018-09-03T19:04:45.010Z,7.87
2018-09-03T19:07:14.145Z,9.87
2018-09-03T19:09:43.272Z,8.40
2018-09-03T19:12:12.429Z,9.23
2018-09-03T19:14:41.611Z,9.20
2018-09-03T19:17:10.726Z,9.83
2018-09-03T19:19:40.105Z,8.17
2018-09-03T19:22:09.329Z,10.17
2018-09-03T19:24:38.381Z,9.30
2018-09-03T19:27:08.186Z,8.77
2018-09-03T19:29:37.398Z,7.37
2018-09-03T19:32:06.649Z,7.70
2018-09-03T19:34:35.801Z,8.50
2018-09-03T19:37:04.927Z,5.47
2018-09-03T19:39:34.055Z,6.07
2018-09-03T19:42:03.193Z,6.00
2018-09-03T19:44:32.331Z,6.33
2018-09-03T19:47:01.590Z,7.33
2018-09-03T19:49:30.720Z,5.70
2018-09-03T19:51:59.942Z,6.57
2018-09-03T19:54:29.107Z,4.97
2018-09-03T19:56:58.191Z,5.37
2018-09-03T19:59:27.388Z,6.17
2018-09-03T20:01:56.491Z,4.80
2018-09-03T20:04:25.706Z,5.07
2018-09-03T20:06:54.866Z,5.30
2018-09-03T20:09:23.984Z,4.70
2018-09-03T20:11:53.286Z,4.73
2018-09-03T20:14:22.478Z,3.87
2018-09-03T20:16:51.624Z,4.23
2018-09-03T20:19:20.839Z,4.00
2018-09-03T20:21:50.084Z,3.90
2018-09-03T20:24:19.411Z,4.30
2018-09-03T20:26:48.454Z,2.77
2018-09-03T20:29:17.518Z,4.17
2018-09-03T20:31:46.677Z,3.50
2018-09-03T20:34:15.816Z,3.80
2018-09-03T20:36:44.848Z,4.97
2018-09-03T20:39:14.052Z,5.07
2018-09-03T20:41:43.243Z,4.70
2018-09-03T20:44:12.432Z,4.67
2018-09-03T20:46:41.669Z,4.60
2018-09-03T20:49:10.815Z,4.30
2018-09-03T20:51:39.950Z,4.67
2018-09-03T20:54:09.171Z,4.23
2018-09-03T20:56:38.264Z,3.60
2018-09-03T20:59:07.451Z,3.50
2018-09-03T21:01:36.762Z,3.10
2018-09-03T21:04:05.954Z,3.93
2018-09-03T21:06:35.106Z,3.50
2018-09-03T21:09:05.425Z,3.83
2018-09-03T21:11:34.807Z,3.20
2018-09-03T21:14:04.742Z,2.43
2018-09-03T21:16:33.917Z,2.97
2018-09-03T21:19:03.171Z,2.87
2018-09-03T21:21:32.371Z,2.87
2018-09-03T21:24:01.520Z,2.90
2018-09-03T21:26:30.591Z,3.37
2018-09-03T21:28:59.697Z,3.13
2018-09-03T21:31:28.806Z,2.73
2018-09-03T21:33:57.878Z,3.07
2018-09-03T21:36:26.911Z,3.47
2018-09-03T21:38:56.147Z,3.00
2018-09-03T21:41:25.386Z,4.63
2018-09-03T21:43:54.481Z,4.07
2018-09-03T21:46:23.732Z,4.07
2018-09-03T21:48:52.847Z,4.80
2018-09-03T21:51:21.927Z,4.50
2018-09-03T21:53:51.129Z,4.87
2018-09-03T21:56:20.263Z,4.67
2018-09-03T21:58:49.490Z,4.53
2018-09-03T22:01:18.669Z,5.63
2018-09-03T22:03:47.751Z,4.97
2018-09-03T22:06:16.857Z,5.10
2018-09-03T22:08:45.908Z,4.80
2018-09-03T22:11:15.072Z,5.90
2018-09-03T22:13:44.151Z,4.40
2018-09-03T22:16:13.276Z,5.87
2018-09-03T22:18:42.439Z,7.20
2018-09-03T22:21:11.554Z,5.23
2018-09-03T22:23:40.716Z,4.73
2018-09-03T22:26:09.930Z,4.83
2018-09-03T22:28:39.103Z,5.30
2018-09-03T22:31:08.171Z,7.20
2018-09-03T22:33:37.224Z,8.00
2018-09-03T22:36:06.522Z,7.30
2018-09-03T22:38:35.617Z,8.97
2018-09-03T22:41:05.038Z,7.80
2018-09-03T22:43:34.125Z,8.27
2018-09-03T22:46:03.348Z,6.97
2018-09-03T22:48:32.471Z,7.80
2018-09-03T22:51:01.599Z,7.33
2018-09-03T22:53:30.799Z,6.93
2018-09-03T22:55:59.967Z,6.80
2018-09-03T22:58:29.203Z,6.00
2018-09-03T23:00:58.311Z,6.40
2018-09-03T23:03:27.471Z,8.40
2018-09-03T23:05:56.551Z,8.70
2018-09-03T23:08:25.795Z,7.60
2018-09-03T23:10:54.990Z,8.07
2018-09-03T23:13:24.239Z,7.80
2018-09-03T23:15:54.233Z,7.67
2018-09-03T23:18:24.483Z,7.90
2018-09-03T23:20:53.632Z,6.60
2018-09-03T23:23:22.841Z,9.63
2018-09-03T23:25:51.880Z,7.97
2018-09-03T23:28:21.003Z,9.57
2018-09-03T23:30:50.051Z,8.70
2018-09-03T23:33:19.206Z,7.80
2018-09-03T23:35:48.316Z,10.57
2018-09-03T23:38:17.452Z,13.40
2018-09-03T23:40:46.586Z,13.47
2018-09-03T23:43:15.635Z,15.90
2018-09-03T23:45:44.835Z,17.27
2018-09-03T23:48:14.022Z,19.67
2018-09-03T23:50:43.225Z,16.90
2018-09-03T23:53:12.451Z,17.30
2018-09-03T23:55:41.611Z,15.40
2018-09-03T23:58:10.707Z,15.47
